createdAt,value
2023-03-15T00:01:38.100Z,8.77
2023-03-15T00:04:06.945Z,8.75
2023-03-15T00:06:35.737Z,9.23
2023-03-15T00:09:04.738Z,8.20
2023-03-15T00:11:34.435Z,8.48
2023-03-15T00:14:03.115Z,9.23
2023-03-15T00:16:32.993Z,8.77
2023-03-15T00:19:01.822Z,8.20
2023-03-15T00:21:30.923Z,9.77
2023-03-15T00:24:00.325Z,9.25
2023-03-15T00:26:29.003Z,10.25
2023-03-15T00:28:58.819Z,10.15
2023-03-15T00:31:27.502Z,9.18
2023-03-15T00:33:55.844Z,6.45
2023-03-15T00:36:27.385Z,3.45
2023-03-15T00:38:57.485Z,3.25
2023-03-15T00:41:26.143Z,3.05
2023-03-15T00:43:54.446Z,3.22
2023-03-15T00:46:24.497Z,3.58
2023-03-15T00:48:53.408Z,3.38
2023-03-15T00:51:23.908Z,3.17
2023-03-15T00:53:54.458Z,2.95
2023-03-15T00:56:24.812Z,2.53
2023-03-15T00:58:53.943Z,3.38
2023-03-15T01:01:25.978Z,4.13
2023-03-15T01:03:54.974Z,3.15
2023-03-15T01:06:25.156Z,3.20
2023-03-15T01:08:55.906Z,3.30
2023-03-15T01:11:26.676Z,3.38
2023-03-15T01:13:57.138Z,3.28
2023-03-15T01:16:27.552Z,3.25
2023-03-15T01:18:56.439Z,3.83
2023-03-15T01:21:25.376Z,3.28
2023-03-15T01:23:55.833Z,3.60
2023-03-15T01:26:24.949Z,3.67
2023-03-15T01:28:53.324Z,3.50
2023-03-15T01:31:24.055Z,3.20
2023-03-15T01:33:54.229Z,3.35
2023-03-15T01:36:22.838Z,3.25
2023-03-15T01:38:52.468Z,3.10
2023-03-15T01:41:27.378Z,2.78
2023-03-15T01:43:55.970Z,3.25
2023-03-15T01:46:27.816Z,3.30
2023-03-15T01:49:25.139Z,2.97
2023-03-15T01:51:58.666Z,3.50
2023-03-15T01:54:34.326Z,3.60
2023-03-15T01:57:06.993Z,3.47
2023-03-15T01:59:41.736Z,3.65
2023-03-15T02:02:15.024Z,3.97
2023-03-15T02:04:51.070Z,3.80
2023-03-15T02:07:25.958Z,3.83
2023-03-15T02:10:01.029Z,3.58
2023-03-15T02:12:33.382Z,3.25
2023-03-15T02:15:04.167Z,2.92
2023-03-15T02:17:37.158Z,4.03
2023-03-15T02:20:17.545Z,3.30
2023-03-15T02:22:56.026Z,3.65
2023-03-15T02:25:37.391Z,3.38
2023-03-15T02:28:09.269Z,3.67
2023-03-15T02:30:37.871Z,3.65
2023-03-15T02:33:10.728Z,3.83
2023-03-15T02:35:39.004Z,3.70
2023-03-15T02:38:07.282Z,3.70
2023-03-15T02:40:36.100Z,3.50
2023-03-15T02:43:10.249Z,3.78
2023-03-15T02:45:40.224Z,3.97
2023-03-15T02:48:10.954Z,3.40
2023-03-15T02:50:39.356Z,3.78
2023-03-15T02:53:08.073Z,3.67
2023-03-15T02:55:43.217Z,3.38
2023-03-15T02:58:13.102Z,3.50
2023-03-15T03:00:41.353Z,3.70
2023-03-15T03:03:09.721Z,3.65
2023-03-15T03:05:38.251Z,3.33
2023-03-15T03:08:07.494Z,3.65
2023-03-15T03:10:36.767Z,4.22
2023-03-15T03:13:05.162Z,3.50
2023-03-15T03:15:38.372Z,3.90
2023-03-15T03:18:06.836Z,3.90
2023-03-15T03:20:35.094Z,3.47
2023-03-15T03:23:06.220Z,3.38
2023-03-15T03:25:36.753Z,3.53
2023-03-15T03:28:05.280Z,3.67
2023-03-15T03:30:38.206Z,4.72
2023-03-15T03:33:06.723Z,4.18
2023-03-15T03:35:35.016Z,3.70
2023-03-15T03:38:03.508Z,4.05
2023-03-15T03:40:37.334Z,4.25
2023-03-15T03:43:07.312Z,4.10
2023-03-15T03:45:36.295Z,4.50
2023-03-15T03:48:09.086Z,4.50
2023-03-15T03:50:37.456Z,5.07
2023-03-15T03:53:05.825Z,5.07
2023-03-15T03:55:36.299Z,5.78
2023-03-15T03:58:04.644Z,5.88
2023-03-15T04:00:41.986Z,4.95
2023-03-15T04:03:16.680Z,5.63
2023-03-15T04:05:48.970Z,5.97
2023-03-15T04:08:22.123Z,6.00
2023-03-15T04:10:54.802Z,5.82
2023-03-15T04:13:26.394Z,6.20
2023-03-15T04:15:57.807Z,6.38
2023-03-15T04:18:31.233Z,5.95
2023-03-15T04:21:00.468Z,5.50
2023-03-15T04:23:29.900Z,6.60
2023-03-15T04:26:11.578Z,6.47
2023-03-15T04:28:54.662Z,6.13
2023-03-15T04:31:38.059Z,5.85
2023-03-15T04:34:31.557Z,6.13
2023-03-15T04:37:13.602Z,5.93
2023-03-15T04:39:56.833Z,6.25
2023-03-15T04:42:51.419Z,5.88
2023-03-15T04:45:35.232Z,6.10
2023-03-15T04:48:22.214Z,6.32
2023-03-15T04:51:12.405Z,5.70
2023-03-15T04:53:47.210Z,5.85
2023-03-15T04:56:35.681Z,5.72
2023-03-15T04:59:35.397Z,6.30
2023-03-15T05:02:20.040Z,6.55
2023-03-15T05:05:03.130Z,5.22
2023-03-15T05:07:44.530Z,6.32
2023-03-15T05:10:33.367Z,5.53
2023-03-15T05:13:20.977Z,5.35
2023-03-15T05:16:00.663Z,5.68
2023-03-15T05:18:46.161Z,6.18
2023-03-15T05:21:32.742Z,5.43
2023-03-15T05:24:38.041Z,6.00
2023-03-15T05:27:23.906Z,5.40
2023-03-15T05:30:04.252Z,6.15
2023-03-15T05:32:54.962Z,6.00
2023-03-15T05:35:41.650Z,5.90
2023-03-15T05:38:26.571Z,5.70
2023-03-15T05:41:17.956Z,5.70
2023-03-15T05:43:53.695Z,5.30
2023-03-15T05:46:44.969Z,5.95
2023-03-15T05:49:14.136Z,5.30
2023-03-15T05:51:50.731Z,6.43
2023-03-15T05:54:28.537Z,5.78
2023-03-15T05:57:29.048Z,5.35
2023-03-15T06:00:22.724Z,5.25
2023-03-15T06:02:56.795Z,5.88
2023-03-15T06:05:48.434Z,5.55
2023-03-15T06:08:21.296Z,5.38
2023-03-15T06:10:51.944Z,6.05
2023-03-15T06:13:21.789Z,6.10
2023-03-15T06:15:50.399Z,6.03
2023-03-15T06:18:20.692Z,5.18
2023-03-15T06:20:50.883Z,5.70
2023-03-15T06:23:20.699Z,5.82
2023-03-15T06:25:49.320Z,5.05
2023-03-15T06:28:18.694Z,4.95
2023-03-15T06:30:54.752Z,5.75
2023-03-15T06:33:28.319Z,5.50
2023-03-15T06:35:57.085Z,4.97
2023-03-15T06:38:25.397Z,6.32
2023-03-15T06:40:53.689Z,5.53
2023-03-15T06:43:22.823Z,5.30
2023-03-15T06:45:56.068Z,5.05
2023-03-15T06:48:24.903Z,6.13
2023-03-15T06:50:53.243Z,5.55
2023-03-15T06:53:21.480Z,5.45
2023-03-15T06:55:50.871Z,5.68
2023-03-15T06:58:19.494Z,6.68
2023-03-15T07:00:48.812Z,6.53
2023-03-15T07:03:19.676Z,6.68
2023-03-15T07:05:52.491Z,7.15
2023-03-15T07:08:21.124Z,7.22
2023-03-15T07:10:50.476Z,7.78
2023-03-15T07:13:21.467Z,7.47
2023-03-15T07:15:53.657Z,8.40
2023-03-15T07:18:23.531Z,8.10
2023-03-15T07:20:57.716Z,8.55
2023-03-15T07:23:26.304Z,9.70
2023-03-15T07:25:55.937Z,10.40
2023-03-15T07:28:25.309Z,9.07
2023-03-15T07:30:55.269Z,10.10
2023-03-15T07:33:26.002Z,10.43
2023-03-15T07:35:55.210Z,9.13
2023-03-15T07:38:24.780Z,9.38
2023-03-15T07:40:53.447Z,10.18
2023-03-15T07:43:22.240Z,9.88
2023-03-15T07:45:52.511Z,9.77
2023-03-15T07:48:20.850Z,9.00
2023-03-15T07:50:50.690Z,10.02
2023-03-15T07:53:19.158Z,9.63
2023-03-15T07:55:48.914Z,8.77
2023-03-15T07:58:20.199Z,9.32
2023-03-15T08:00:51.212Z,9.45
2023-03-15T08:03:19.636Z,9.43
2023-03-15T08:05:47.829Z,9.15
2023-03-15T08:08:17.706Z,9.93
2023-03-15T08:10:47.401Z,9.00
2023-03-15T08:13:15.998Z,8.75
2023-03-15T08:15:47.152Z,8.95
2023-03-15T08:18:15.808Z,8.10
2023-03-15T08:20:44.313Z,8.70
2023-03-15T08:23:16.530Z,8.50
2023-03-15T08:25:46.875Z,8.98
2023-03-15T08:28:16.642Z,10.05
2023-03-15T08:30:45.270Z,8.85
2023-03-15T08:33:13.741Z,9.25
2023-03-15T08:35:42.505Z,8.13
2023-03-15T08:38:10.968Z,8.27
2023-03-15T08:40:40.920Z,9.48
2023-03-15T08:43:10.557Z,8.57
2023-03-15T08:45:56.786Z,7.93
2023-03-15T08:48:27.343Z,8.25
2023-03-15T08:50:55.646Z,7.82
2023-03-15T08:53:23.892Z,7.93
2023-03-15T08:55:52.131Z,8.45
2023-03-15T08:58:21.885Z,8.45
2023-03-15T09:00:51.797Z,7.30
2023-03-15T09:03:20.893Z,7.88
2023-03-15T09:05:49.752Z,7.35
2023-03-15T09:08:21.237Z,7.90
2023-03-15T09:10:49.542Z,8.02
2023-03-15T09:13:17.953Z,8.48
2023-03-15T09:15:47.651Z,7.82
2023-03-15T09:18:16.011Z,5.93
2023-03-15T09:20:44.513Z,5.28
2023-03-15T09:23:12.857Z,5.07
2023-03-15T09:25:41.745Z,6.10
2023-03-15T09:28:12.292Z,6.88
2023-03-15T09:30:42.126Z,5.20
2023-03-15T09:33:14.658Z,5.30
2023-03-15T09:35:43.440Z,5.60
2023-03-15T09:38:11.822Z,6.10
2023-03-15T09:40:42.631Z,5.90
2023-03-15T09:43:38.722Z,6.95
2023-03-15T09:46:18.401Z,6.50
2023-03-15T09:48:55.486Z,6.75
2023-03-15T09:51:35.586Z,6.10
2023-03-15T09:54:09.292Z,6.78
2023-03-15T09:56:41.443Z,5.97
2023-03-15T09:59:12.128Z,6.70
2023-03-15T10:01:42.602Z,6.70
2023-03-15T10:04:22.738Z,6.40
2023-03-15T10:06:55.195Z,6.80
2023-03-15T10:09:26.711Z,7.68
2023-03-15T10:12:04.575Z,7.72
2023-03-15T10:14:58.545Z,7.65
2023-03-15T10:17:38.548Z,7.25
2023-03-15T10:20:13.338Z,7.47
2023-03-15T10:22:49.476Z,6.90
2023-03-15T10:25:23.600Z,6.88
2023-03-15T10:27:56.209Z,7.30
2023-03-15T10:30:26.675Z,7.60
2023-03-15T10:32:59.485Z,7.63
2023-03-15T10:35:29.694Z,7.35
2023-03-15T10:37:58.441Z,8.75
2023-03-15T10:40:44.386Z,9.40
2023-03-15T10:43:20.911Z,7.38
2023-03-15T10:46:00.300Z,6.82
2023-03-15T10:48:29.545Z,6.40
2023-03-15T10:51:02.359Z,7.05
2023-03-15T10:53:30.715Z,7.07
2023-03-15T10:56:01.847Z,6.10
2023-03-15T10:58:39.976Z,6.95
2023-03-15T11:01:12.169Z,6.90
2023-03-15T11:03:43.997Z,6.80
2023-03-15T11:06:23.210Z,6.95
2023-03-15T11:08:51.461Z,6.47
2023-03-15T11:11:21.422Z,6.75
2023-03-15T11:14:00.621Z,6.45
2023-03-15T11:16:36.186Z,6.45
2023-03-15T11:19:12.085Z,6.47
2023-03-15T11:21:43.635Z,6.68
2023-03-15T11:24:27.701Z,6.97
2023-03-15T11:26:57.339Z,6.47
2023-03-15T11:29:28.708Z,7.40
2023-03-15T11:31:58.033Z,6.68
2023-03-15T11:34:43.327Z,7.32
2023-03-15T11:37:21.726Z,7.40
2023-03-15T11:40:08.943Z,7.25
2023-03-15T11:42:45.629Z,7.15
2023-03-15T11:45:19.674Z,7.57
2023-03-15T11:47:54.251Z,7.95
2023-03-15T11:50:22.995Z,6.95
2023-03-15T11:52:54.154Z,7.97
2023-03-15T11:55:26.157Z,8.23
2023-03-15T11:57:55.204Z,7.50
2023-03-15T12:00:51.679Z,7.55
2023-03-15T12:03:35.520Z,7.97
2023-03-15T12:06:29.679Z,7.32
2023-03-15T12:08:59.476Z,7.63
2023-03-15T12:11:48.830Z,6.32
2023-03-15T12:14:30.753Z,6.50
2023-03-15T12:17:39.040Z,6.25
2023-03-15T12:20:14.739Z,5.65
2023-03-15T12:22:49.549Z,5.35
2023-03-15T12:25:45.354Z,5.85
2023-03-15T12:28:24.270Z,5.63
2023-03-15T12:30:59.339Z,6.07
2023-03-15T12:33:29.329Z,5.40
2023-03-15T12:36:01.947Z,5.25
2023-03-15T12:38:37.942Z,6.25
2023-03-15T12:41:36.008Z,6.30
2023-03-15T12:47:02.061Z,5.80
2023-03-15T12:49:34.051Z,6.82
2023-03-15T12:52:05.307Z,6.80
2023-03-15T12:54:42.993Z,6.28
2023-03-15T12:57:13.270Z,5.63
2023-03-15T12:59:52.274Z,7.18
2023-03-15T13:02:43.929Z,7.03
2023-03-15T13:05:23.623Z,7.35
2023-03-15T13:08:09.755Z,6.15
2023-03-15T13:10:53.689Z,6.15
2023-03-15T13:13:34.559Z,6.13
2023-03-15T13:16:18.072Z,7.18
2023-03-15T13:18:54.752Z,6.78
2023-03-15T13:21:29.876Z,6.25
2023-03-15T13:24:00.207Z,5.53
2023-03-15T13:26:43.282Z,5.30
2023-03-15T13:29:17.673Z,4.75
2023-03-15T13:31:47.413Z,5.30
2023-03-15T13:34:21.966Z,4.90
2023-03-15T13:36:56.291Z,5.60
2023-03-15T13:39:26.372Z,6.90
2023-03-15T13:42:07.596Z,5.00
2023-03-15T13:44:35.994Z,5.47
2023-03-15T13:47:04.453Z,4.65
2023-03-15T13:49:35.882Z,4.95
2023-03-15T13:52:12.364Z,8.65
2023-03-15T13:54:42.075Z,6.35
2023-03-15T13:57:14.398Z,9.68
2023-03-15T13:59:46.931Z,7.05
2023-03-15T14:02:18.719Z,8.23
2023-03-15T14:04:51.863Z,6.53
2023-03-15T14:07:35.450Z,7.55
2023-03-15T14:10:30.302Z,7.78
2023-03-15T14:12:59.879Z,9.23
2023-03-15T14:15:37.376Z,8.20
2023-03-15T14:18:18.360Z,7.68
2023-03-15T14:20:54.860Z,8.00
2023-03-15T14:23:25.755Z,6.72
2023-03-15T14:25:56.062Z,6.82
2023-03-15T14:28:25.644Z,6.25
2023-03-15T14:30:56.345Z,7.47
2023-03-15T14:33:31.173Z,6.65
2023-03-15T14:36:02.898Z,6.50
2023-03-15T14:38:36.393Z,5.20
2023-03-15T14:41:33.192Z,5.25
2023-03-15T14:44:03.062Z,5.70
2023-03-15T14:46:33.210Z,6.07
2023-03-15T14:49:01.808Z,6.13
2023-03-15T14:51:33.088Z,5.13
2023-03-15T14:54:02.218Z,5.45
2023-03-15T14:56:31.146Z,6.35
2023-03-15T14:59:00.853Z,5.20
2023-03-15T15:01:30.248Z,6.38
2023-03-15T15:04:01.842Z,5.88
2023-03-15T15:06:33.227Z,5.63
2023-03-15T15:09:04.046Z,5.63
2023-03-15T15:11:32.677Z,6.05
2023-03-15T15:14:01.173Z,7.65
2023-03-15T15:16:29.833Z,7.35
2023-03-15T15:18:58.152Z,8.23
2023-03-15T15:21:33.734Z,7.03
2023-03-15T15:24:05.725Z,7.97
2023-03-15T15:26:34.593Z,7.38
2023-03-15T15:29:03.132Z,5.93
2023-03-15T15:31:34.534Z,7.32
2023-03-15T15:34:03.306Z,7.05
2023-03-15T15:36:34.297Z,6.63
2023-03-15T15:39:07.081Z,7.38
2023-03-15T15:41:35.791Z,7.07
2023-03-15T15:44:04.249Z,7.30
2023-03-15T15:46:32.659Z,7.22
2023-03-15T15:49:00.973Z,5.97
2023-03-15T15:51:31.918Z,6.10
2023-03-15T15:54:01.823Z,7.22
2023-03-15T15:56:35.183Z,8.00
2023-03-15T15:59:05.075Z,6.53
2023-03-15T16:01:33.776Z,6.95
2023-03-15T16:04:03.809Z,5.78
2023-03-15T16:06:32.580Z,6.38
2023-03-15T16:09:01.369Z,6.20
2023-03-15T16:11:30.636Z,5.82
2023-03-15T16:14:02.815Z,6.22
2023-03-15T16:16:31.439Z,6.45
2023-03-15T16:18:59.805Z,6.35
2023-03-15T16:21:34.842Z,6.55
2023-03-15T16:24:07.414Z,7.80
2023-03-15T16:26:37.950Z,7.40
2023-03-15T16:29:16.817Z,6.90
2023-03-15T16:31:45.195Z,7.18
2023-03-15T16:34:15.021Z,6.40
2023-03-15T16:36:49.824Z,6.93
2023-03-15T16:39:18.631Z,7.90
2023-03-15T16:41:47.128Z,7.18
2023-03-15T16:44:18.647Z,8.10
2023-03-15T16:46:47.187Z,7.25
2023-03-15T16:49:15.997Z,7.90
2023-03-15T16:51:47.521Z,7.00
2023-03-15T16:54:30.532Z,7.65
2023-03-15T16:57:02.887Z,7.32
2023-03-15T16:59:32.938Z,7.90
2023-03-15T17:02:01.515Z,8.05
2023-03-15T17:04:29.953Z,6.78
2023-03-15T17:06:58.344Z,7.55
2023-03-15T17:09:29.087Z,7.18
2023-03-15T17:12:00.665Z,8.77
2023-03-15T17:14:35.567Z,6.88
2023-03-15T17:17:03.945Z,7.70
2023-03-15T17:19:33.030Z,7.53
2023-03-15T17:22:01.439Z,6.70
2023-03-15T17:24:29.863Z,7.22
2023-03-15T17:26:58.694Z,7.38
2023-03-15T17:29:27.167Z,7.00
2023-03-15T17:31:56.925Z,7.38
2023-03-15T17:34:26.999Z,6.78
2023-03-15T17:36:56.040Z,7.38
2023-03-15T17:39:24.596Z,6.50
2023-03-15T17:41:52.986Z,7.30
2023-03-15T17:44:21.324Z,8.02
2023-03-15T17:46:49.727Z,6.57
2023-03-15T17:49:21.128Z,6.93
2023-03-15T17:51:50.130Z,7.85
2023-03-15T17:54:19.623Z,7.40
2023-03-15T17:56:48.181Z,7.30
2023-03-15T17:59:16.862Z,7.25
2023-03-15T18:01:46.605Z,8.75
2023-03-15T18:04:15.452Z,7.88
2023-03-15T18:06:45.454Z,7.68
2023-03-15T18:09:15.628Z,7.97
2023-03-15T18:11:46.246Z,9.23
2023-03-15T18:14:18.200Z,9.02
2023-03-15T18:16:46.789Z,9.43
2023-03-15T18:19:15.103Z,9.15
2023-03-15T18:21:44.839Z,8.15
2023-03-15T18:24:15.029Z,8.20
2023-03-15T18:26:43.464Z,8.75
2023-03-15T18:29:11.839Z,9.73
2023-03-15T18:31:40.720Z,9.65
2023-03-15T18:34:10.116Z,10.23
2023-03-15T18:36:38.552Z,9.32
2023-03-15T18:39:08.317Z,8.98
2023-03-15T18:41:36.676Z,9.25
2023-03-15T18:44:04.932Z,8.77
2023-03-15T18:46:33.422Z,7.70
2023-03-15T18:49:01.953Z,8.27
2023-03-15T18:51:30.319Z,8.15
2023-03-15T18:53:58.639Z,8.77
2023-03-15T18:56:34.447Z,8.02
2023-03-15T18:59:03.701Z,8.48
2023-03-15T19:01:32.473Z,7.82
2023-03-15T19:04:00.818Z,7.43
2023-03-15T19:06:29.310Z,7.68
2023-03-15T19:08:57.546Z,7.18
2023-03-15T19:11:31.438Z,7.95
2023-03-15T19:13:59.969Z,8.05
2023-03-15T19:16:30.923Z,10.65
2023-03-15T19:18:59.298Z,8.52
2023-03-15T19:21:27.602Z,8.48
2023-03-15T19:23:58.169Z,14.05
2023-03-15T19:26:28.104Z,12.40
2023-03-15T19:28:56.560Z,13.23
2023-03-15T19:31:24.964Z,11.88
2023-03-15T19:33:53.694Z,11.50
2023-03-15T19:36:22.467Z,11.30
2023-03-15T19:38:50.758Z,11.15
2023-03-15T19:41:19.078Z,13.85
2023-03-15T19:43:48.791Z,13.02
2023-03-15T19:46:17.983Z,11.85
2023-03-15T19:48:46.336Z,12.00
2023-03-15T19:51:16.172Z,11.60
2023-03-15T19:53:44.562Z,11.32
2023-03-15T19:56:12.801Z,12.13
2023-03-15T19:58:41.045Z,11.98
2023-03-15T20:01:11.433Z,10.05
2023-03-15T20:03:39.944Z,10.75
2023-03-15T20:06:09.894Z,12.25
2023-03-15T20:08:38.195Z,11.25
2023-03-15T20:11:07.817Z,12.07
2023-03-15T20:13:37.291Z,9.95
2023-03-15T20:16:06.205Z,9.82
2023-03-15T20:18:36.070Z,10.90
2023-03-15T20:21:04.788Z,11.43
2023-03-15T20:23:33.491Z,9.38
2023-03-15T20:26:06.935Z,9.57
2023-03-15T20:28:35.431Z,11.10
2023-03-15T20:31:08.061Z,10.32
2023-03-15T20:33:37.897Z,9.45
2023-03-15T20:36:06.968Z,9.73
2023-03-15T20:38:37.148Z,9.05
2023-03-15T20:41:07.110Z,8.52
2023-03-15T20:43:35.819Z,9.27
2023-03-15T20:46:04.868Z,9.52
2023-03-15T20:48:35.135Z,9.88
2023-03-15T20:51:06.692Z,8.65
2023-03-15T20:53:36.811Z,11.65
2023-03-15T20:56:06.708Z,10.93
2023-03-15T20:58:35.231Z,9.82
2023-03-15T21:01:07.450Z,9.65
2023-03-15T21:03:36.200Z,9.20
2023-03-15T21:06:07.212Z,10.02
2023-03-15T21:08:35.873Z,10.52
2023-03-15T21:11:05.898Z,11.35
2023-03-15T21:13:34.743Z,11.77
2023-03-15T21:16:04.626Z,12.35
2023-03-15T21:18:36.069Z,13.25
2023-03-15T21:21:07.808Z,13.93
2023-03-15T21:23:37.122Z,14.05
2023-03-15T21:26:07.364Z,13.07
2023-03-15T21:28:35.972Z,11.57
2023-03-15T21:31:05.577Z,12.35
2023-03-15T21:33:34.786Z,12.65
2023-03-15T21:36:03.546Z,12.63
2023-03-15T21:38:35.341Z,12.05
2023-03-15T21:41:09.083Z,12.80
2023-03-15T21:43:38.116Z,12.45
2023-03-15T21:46:08.665Z,13.35
2023-03-15T21:48:38.225Z,13.32
2023-03-15T21:51:07.706Z,16.75
2023-03-15T21:53:38.666Z,16.40
2023-03-15T21:56:07.616Z,14.98
2023-03-15T21:58:35.958Z,15.77
2023-03-15T22:01:07.070Z,15.65
2023-03-15T22:03:36.302Z,14.88
2023-03-15T22:06:05.187Z,14.63
2023-03-15T22:08:34.316Z,15.93
2023-03-15T22:11:04.584Z,16.60
2023-03-15T22:13:32.841Z,16.35
2023-03-15T22:16:01.448Z,16.75
2023-03-15T22:18:30.014Z,16.58
2023-03-15T22:20:58.412Z,16.35
2023-03-15T22:23:26.774Z,16.38
2023-03-15T22:25:55.608Z,17.20
2023-03-15T22:28:26.222Z,17.42
2023-03-15T22:30:54.968Z,16.45
2023-03-15T22:33:23.655Z,15.85
2023-03-15T22:35:56.836Z,17.25
2023-03-15T22:38:26.690Z,17.55
2023-03-15T22:41:02.193Z,16.30
2023-03-15T22:43:32.113Z,15.35
2023-03-15T22:46:00.348Z,16.67
2023-03-15T22:48:29.461Z,17.88
2023-03-15T22:50:59.986Z,17.85
2023-03-15T22:53:28.827Z,18.33
2023-03-15T22:55:57.179Z,17.52
2023-03-15T22:58:25.513Z,16.88
2023-03-15T23:00:55.540Z,17.73
2023-03-15T23:03:23.884Z,16.75
2023-03-15T23:05:52.213Z,17.17
2023-03-15T23:08:20.636Z,15.38
2023-03-15T23:10:48.934Z,17.08
2023-03-15T23:13:17.451Z,16.38
2023-03-15T23:15:45.705Z,15.38
2023-03-15T23:18:15.638Z,17.77
2023-03-15T23:20:44.015Z,18.20
2023-03-15T23:23:12.326Z,17.42
2023-03-15T23:25:41.459Z,17.90
2023-03-15T23:28:09.989Z,16.38
2023-03-15T23:30:40.591Z,16.42
2023-03-15T23:33:09.030Z,15.38
2023-03-15T23:35:38.769Z,18.17
2023-03-15T23:38:06.992Z,17.25
2023-03-15T23:40:35.509Z,16.65
2023-03-15T23:43:04.310Z,17.58
2023-03-15T23:45:32.642Z,15.93
2023-03-15T23:48:02.376Z,15.80
2023-03-15T23:50:31.226Z,16.05
2023-03-15T23:53:01.149Z,15.18
2023-03-15T23:55:31.130Z,15.15
2023-03-15T23:57:59.375Z,15.27
